sensor_id;sensor_type;location;lat;lon;timestamp;P1;durP1;ratioP1;P2;durP2;ratioP2
56712;SDS011;42589;45.536;9.032;2023-03-01T00:01:04;50.33;;;35.40;;
56712;SDS011;42589;45.536;9.032;2023-03-01T00:04:06;47.67;;;35.33;;
56712;SDS011;42589;45.536;9.032;2023-03-01T00:07:07;47.83;;;34.72;;
56712;SDS011;42589;45.536;9.032;2023-03-01T00:10:08;46.13;;;34.75;;
56712;SDS011;42589;45.536;9.032;2023-03-01T00:13:10;47.13;;;34.30;;
56712;SDS011;42589;45.536;9.032;2023-03-01T00:16:15;46.97;;;34.50;;
56712;SDS011;42589;45.536;9.032;2023-03-01T00:19:19;48.80;;;35.80;;
56712;SDS011;42589;45.536;9.032;2023-03-01T00:22:21;51.50;;;36.83;;
56712;SDS011;42589;45.536;9.032;2023-03-01T00:25:23;55.45;;;38.08;;
56712;SDS011;42589;45.536;9.032;2023-03-01T00:28:24;60.38;;;39.60;;
56712;SDS011;42589;45.536;9.032;2023-03-01T00:31:27;55.15;;;38.80;;
56712;SDS011;42589;45.536;9.032;2023-03-01T00:34:29;54.70;;;38.90;;
56712;SDS011;42589;45.536;9.032;2023-03-01T00:37:30;53.40;;;38.45;;
56712;SDS011;42589;45.536;9.032;2023-03-01T00:40:31;54.95;;;38.10;;
56712;SDS011;42589;45.536;9.032;2023-03-01T00:43:38;51.42;;;36.92;;
56712;SDS011;42589;45.536;9.032;2023-03-01T00:46:39;49.80;;;37.13;;
56712;SDS011;42589;45.536;9.032;2023-03-01T00:49:45;50.17;;;36.30;;
56712;SDS011;42589;45.536;9.032;2023-03-01T00:52:47;51.60;;;36.42;;
56712;SDS011;42589;45.536;9.032;2023-03-01T00:55:52;50.33;;;35.92;;
56712;SDS011;42589;45.536;9.032;2023-03-01T00:58:53;52.88;;;37.15;;
56712;SDS011;42589;45.536;9.032;2023-03-01T01:01:53;52.42;;;37.92;;
56712;SDS011;42589;45.536;9.032;2023-03-01T01:04:55;52.65;;;38.05;;
56712;SDS011;42589;45.536;9.032;2023-03-01T01:07:55;51.58;;;37.40;;
56712;SDS011;42589;45.536;9.032;2023-03-01T01:10:57;49.78;;;37.47;;
56712;SDS011;42589;45.536;9.032;2023-03-01T01:13:58;51.35;;;38.10;;
56712;SDS011;42589;45.536;9.032;2023-03-01T01:16:59;50.85;;;37.35;;
56712;SDS011;42589;45.536;9.032;2023-03-01T01:20:01;50.05;;;36.47;;
56712;SDS011;42589;45.536;9.032;2023-03-01T01:23:04;51.85;;;37.92;;
56712;SDS011;42589;45.536;9.032;2023-03-01T01:26:07;50.13;;;36.85;;
56712;SDS011;42589;45.536;9.032;2023-03-01T01:29:10;51.70;;;37.15;;
56712;SDS011;42589;45.536;9.032;2023-03-01T01:32:11;54.10;;;37.75;;
56712;SDS011;42589;45.536;9.032;2023-03-01T01:35:15;51.47;;;36.97;;
56712;SDS011;42589;45.536;9.032;2023-03-01T01:41:17;51.83;;;37.53;;
56712;SDS011;42589;45.536;9.032;2023-03-01T01:44:24;51.30;;;37.70;;
56712;SDS011;42589;45.536;9.032;2023-03-01T01:47:27;49.63;;;37.35;;
56712;SDS011;42589;45.536;9.032;2023-03-01T01:50:28;49.60;;;36.67;;
56712;SDS011;42589;45.536;9.032;2023-03-01T01:53:38;52.30;;;38.03;;
56712;SDS011;42589;45.536;9.032;2023-03-01T01:56:40;50.28;;;37.75;;
56712;SDS011;42589;45.536;9.032;2023-03-01T01:59:45;54.30;;;38.03;;
56712;SDS011;42589;45.536;9.032;2023-03-01T02:02:58;52.25;;;37.78;;
56712;SDS011;42589;45.536;9.032;2023-03-01T02:09:40;52.92;;;38.30;;
56712;SDS011;42589;45.536;9.032;2023-03-01T02:12:44;53.45;;;38.03;;
56712;SDS011;42589;45.536;9.032;2023-03-01T02:15:46;49.50;;;36.10;;
56712;SDS011;42589;45.536;9.032;2023-03-01T02:18:47;53.17;;;37.42;;
56712;SDS011;42589;45.536;9.032;2023-03-01T02:21:55;50.30;;;36.95;;
56712;SDS011;42589;45.536;9.032;2023-03-01T02:25:50;47.78;;;36.85;;
56712;SDS011;42589;45.536;9.032;2023-03-01T02:28:54;54.85;;;38.15;;
56712;SDS011;42589;45.536;9.032;2023-03-01T02:31:56;50.78;;;37.63;;
56712;SDS011;42589;45.536;9.032;2023-03-01T02:38:01;50.38;;;36.60;;
56712;SDS011;42589;45.536;9.032;2023-03-01T02:41:04;53.70;;;37.47;;
56712;SDS011;42589;45.536;9.032;2023-03-01T02:44:07;50.95;;;36.80;;
56712;SDS011;42589;45.536;9.032;2023-03-01T02:47:08;52.47;;;37.13;;
56712;SDS011;42589;45.536;9.032;2023-03-01T02:53:48;47.83;;;36.10;;
56712;SDS011;42589;45.536;9.032;2023-03-01T02:57:00;50.42;;;36.88;;
56712;SDS011;42589;45.536;9.032;2023-03-01T03:00:05;52.13;;;36.53;;
56712;SDS011;42589;45.536;9.032;2023-03-01T03:03:15;52.13;;;37.47;;
56712;SDS011;42589;45.536;9.032;2023-03-01T03:06:18;52.17;;;37.08;;
56712;SDS011;42589;45.536;9.032;2023-03-01T03:09:19;48.97;;;37.28;;
56712;SDS011;42589;45.536;9.032;2023-03-01T03:12:20;51.13;;;36.58;;
56712;SDS011;42589;45.536;9.032;2023-03-01T03:15:22;49.08;;;37.28;;
56712;SDS011;42589;45.536;9.032;2023-03-01T03:18:23;52.70;;;37.50;;
56712;SDS011;42589;45.536;9.032;2023-03-01T03:21:27;49.60;;;36.45;;
56712;SDS011;42589;45.536;9.032;2023-03-01T03:24:28;50.08;;;38.20;;
56712;SDS011;42589;45.536;9.032;2023-03-01T03:27:41;52.28;;;36.78;;
56712;SDS011;42589;45.536;9.032;2023-03-01T03:30:43;55.95;;;38.17;;
56712;SDS011;42589;45.536;9.032;2023-03-01T03:33:44;58.28;;;38.22;;
56712;SDS011;42589;45.536;9.032;2023-03-01T03:36:45;50.75;;;36.40;;
56712;SDS011;42589;45.536;9.032;2023-03-01T03:39:47;55.53;;;37.78;;
56712;SDS011;42589;45.536;9.032;2023-03-01T03:42:48;52.75;;;38.95;;
56712;SDS011;42589;45.536;9.032;2023-03-01T03:45:49;51.90;;;36.75;;
56712;SDS011;42589;45.536;9.032;2023-03-01T03:48:50;56.45;;;36.35;;
56712;SDS011;42589;45.536;9.032;2023-03-01T03:51:51;51.88;;;36.58;;
56712;SDS011;42589;45.536;9.032;2023-03-01T03:54:52;51.10;;;35.72;;
56712;SDS011;42589;45.536;9.032;2023-03-01T03:57:54;52.22;;;35.63;;
56712;SDS011;42589;45.536;9.032;2023-03-01T04:00:58;54.40;;;36.53;;
56712;SDS011;42589;45.536;9.032;2023-03-01T04:03:58;57.63;;;38.20;;
56712;SDS011;42589;45.536;9.032;2023-03-01T04:07:04;53.47;;;36.88;;
56712;SDS011;42589;45.536;9.032;2023-03-01T04:10:05;52.78;;;36.67;;
56712;SDS011;42589;45.536;9.032;2023-03-01T04:13:10;53.30;;;36.72;;
56712;SDS011;42589;45.536;9.032;2023-03-01T04:16:13;55.55;;;38.00;;
56712;SDS011;42589;45.536;9.032;2023-03-01T04:19:14;49.15;;;34.88;;
56712;SDS011;42589;45.536;9.032;2023-03-01T04:22:16;49.30;;;36.28;;
56712;SDS011;42589;45.536;9.032;2023-03-01T04:25:21;50.85;;;36.10;;
56712;SDS011;42589;45.536;9.032;2023-03-01T04:28:26;55.10;;;36.38;;
56712;SDS011;42589;45.536;9.032;2023-03-01T04:31:32;56.92;;;36.97;;
56712;SDS011;42589;45.536;9.032;2023-03-01T04:34:34;57.13;;;37.72;;
56712;SDS011;42589;45.536;9.032;2023-03-01T04:37:35;58.42;;;38.65;;
56712;SDS011;42589;45.536;9.032;2023-03-01T04:40:37;58.03;;;38.55;;
56712;SDS011;42589;45.536;9.032;2023-03-01T04:43:38;51.92;;;37.20;;
56712;SDS011;42589;45.536;9.032;2023-03-01T04:46:39;54.22;;;38.03;;
56712;SDS011;42589;45.536;9.032;2023-03-01T04:49:40;54.88;;;37.08;;
56712;SDS011;42589;45.536;9.032;2023-03-01T04:52:41;54.70;;;36.38;;
56712;SDS011;42589;45.536;9.032;2023-03-01T04:55:45;53.53;;;36.92;;
56712;SDS011;42589;45.536;9.032;2023-03-01T04:58:49;54.65;;;35.30;;
56712;SDS011;42589;45.536;9.032;2023-03-01T05:01:53;55.05;;;36.63;;
56712;SDS011;42589;45.536;9.032;2023-03-01T05:04:56;54.92;;;37.25;;
56712;SDS011;42589;45.536;9.032;2023-03-01T05:08:01;56.15;;;37.38;;
56712;SDS011;42589;45.536;9.032;2023-03-01T05:11:04;55.80;;;36.92;;
56712;SDS011;42589;45.536;9.032;2023-03-01T05:17:09;54.88;;;34.65;;
56712;SDS011;42589;45.536;9.032;2023-03-01T05:20:11;57.17;;;37.03;;
56712;SDS011;42589;45.536;9.032;2023-03-01T05:23:13;52.67;;;34.75;;
56712;SDS011;42589;45.536;9.032;2023-03-01T05:26:15;57.15;;;36.53;;
56712;SDS011;42589;45.536;9.032;2023-03-01T05:29:19;58.58;;;40.00;;
56712;SDS011;42589;45.536;9.032;2023-03-01T05:32:24;58.92;;;40.72;;
56712;SDS011;42589;45.536;9.032;2023-03-01T05:35:25;58.10;;;37.80;;
56712;SDS011;42589;45.536;9.032;2023-03-01T05:38:26;60.90;;;37.25;;
56712;SDS011;42589;45.536;9.032;2023-03-01T05:41:27;56.72;;;38.20;;
56712;SDS011;42589;45.536;9.032;2023-03-01T05:44:28;57.13;;;38.13;;
56712;SDS011;42589;45.536;9.032;2023-03-01T05:47:30;53.60;;;37.35;;
56712;SDS011;42589;45.536;9.032;2023-03-01T05:50:32;57.88;;;37.25;;
56712;SDS011;42589;45.536;9.032;2023-03-01T05:53:38;62.22;;;38.55;;
56712;SDS011;42589;45.536;9.032;2023-03-01T05:56:39;61.00;;;36.55;;
56712;SDS011;42589;45.536;9.032;2023-03-01T05:59:39;57.95;;;35.70;;
56712;SDS011;42589;45.536;9.032;2023-03-01T06:02:41;53.50;;;35.85;;
56712;SDS011;42589;45.536;9.032;2023-03-01T06:05:41;64.63;;;39.25;;
56712;SDS011;42589;45.536;9.032;2023-03-01T06:08:43;60.53;;;38.75;;
56712;SDS011;42589;45.536;9.032;2023-03-01T06:11:44;58.60;;;35.72;;
56712;SDS011;42589;45.536;9.032;2023-03-01T06:14:45;58.35;;;38.05;;
56712;SDS011;42589;45.536;9.032;2023-03-01T06:17:47;56.92;;;36.28;;
56712;SDS011;42589;45.536;9.032;2023-03-01T06:20:54;57.33;;;37.83;;
56712;SDS011;42589;45.536;9.032;2023-03-01T06:23:56;62.30;;;39.72;;
56712;SDS011;42589;45.536;9.032;2023-03-01T06:26:58;63.53;;;39.65;;
56712;SDS011;42589;45.536;9.032;2023-03-01T06:29:59;55.33;;;37.28;;
56712;SDS011;42589;45.536;9.032;2023-03-01T06:33:00;64.47;;;40.42;;
56712;SDS011;42589;45.536;9.032;2023-03-01T06:36:03;66.15;;;39.28;;
56712;SDS011;42589;45.536;9.032;2023-03-01T06:39:04;58.70;;;36.72;;
56712;SDS011;42589;45.536;9.032;2023-03-01T06:42:05;59.92;;;38.40;;
56712;SDS011;42589;45.536;9.032;2023-03-01T06:45:08;55.80;;;35.78;;
56712;SDS011;42589;45.536;9.032;2023-03-01T06:48:09;59.95;;;37.63;;
56712;SDS011;42589;45.536;9.032;2023-03-01T06:51:14;57.28;;;37.03;;
56712;SDS011;42589;45.536;9.032;2023-03-01T06:54:15;56.60;;;37.80;;
56712;SDS011;42589;45.536;9.032;2023-03-01T06:57:16;60.22;;;38.53;;
56712;SDS011;42589;45.536;9.032;2023-03-01T07:00:17;55.97;;;37.13;;
56712;SDS011;42589;45.536;9.032;2023-03-01T07:03:18;62.17;;;37.70;;
56712;SDS011;42589;45.536;9.032;2023-03-01T07:06:19;54.90;;;36.08;;
56712;SDS011;42589;45.536;9.032;2023-03-01T07:09:21;52.40;;;36.17;;
56712;SDS011;42589;45.536;9.032;2023-03-01T07:12:22;52.40;;;36.58;;
56712;SDS011;42589;45.536;9.032;2023-03-01T07:15:23;48.95;;;35.00;;
56712;SDS011;42589;45.536;9.032;2023-03-01T07:18:25;62.40;;;38.20;;
56712;SDS011;42589;45.536;9.032;2023-03-01T07:21:29;52.38;;;36.35;;
56712;SDS011;42589;45.536;9.032;2023-03-01T07:24:30;61.90;;;41.85;;
56712;SDS011;42589;45.536;9.032;2023-03-01T07:27:30;59.80;;;40.30;;
56712;SDS011;42589;45.536;9.032;2023-03-01T07:30:32;55.83;;;38.72;;
56712;SDS011;42589;45.536;9.032;2023-03-01T07:33:32;55.10;;;38.03;;
56712;SDS011;42589;45.536;9.032;2023-03-01T07:36:33;53.80;;;35.55;;
56712;SDS011;42589;45.536;9.032;2023-03-01T07:39:34;51.15;;;36.38;;
56712;SDS011;42589;45.536;9.032;2023-03-01T07:42:35;52.75;;;37.80;;
56712;SDS011;42589;45.536;9.032;2023-03-01T07:45:36;56.85;;;36.55;;
56712;SDS011;42589;45.536;9.032;2023-03-01T07:48:38;54.95;;;36.88;;
56712;SDS011;42589;45.536;9.032;2023-03-01T07:51:39;50.72;;;36.40;;
56712;SDS011;42589;45.536;9.032;2023-03-01T07:54:42;48.35;;;35.78;;
56712;SDS011;42589;45.536;9.032;2023-03-01T07:57:44;52.60;;;35.80;;
56712;SDS011;42589;45.536;9.032;2023-03-01T08:00:50;52.13;;;34.47;;
56712;SDS011;42589;45.536;9.032;2023-03-01T08:03:51;49.25;;;34.10;;
56712;SDS011;42589;45.536;9.032;2023-03-01T08:06:53;52.10;;;36.33;;
56712;SDS011;42589;45.536;9.032;2023-03-01T08:09:56;51.72;;;35.15;;
56712;SDS011;42589;45.536;9.032;2023-03-01T08:12:57;52.88;;;32.70;;
56712;SDS011;42589;45.536;9.032;2023-03-01T08:16:02;48.38;;;32.83;;
56712;SDS011;42589;45.536;9.032;2023-03-01T08:19:06;47.60;;;31.40;;
56712;SDS011;42589;45.536;9.032;2023-03-01T08:22:08;38.17;;;25.92;;
56712;SDS011;42589;45.536;9.032;2023-03-01T08:25:09;37.10;;;25.58;;
56712;SDS011;42589;45.536;9.032;2023-03-01T08:28:09;33.78;;;24.60;;
56712;SDS011;42589;45.536;9.032;2023-03-01T08:34:17;33.67;;;23.80;;
56712;SDS011;42589;45.536;9.032;2023-03-01T08:37:19;37.15;;;25.52;;
56712;SDS011;42589;45.536;9.032;2023-03-01T08:40:20;31.65;;;22.85;;
56712;SDS011;42589;45.536;9.032;2023-03-01T08:43:21;32.03;;;23.02;;
56712;SDS011;42589;45.536;9.032;2023-03-01T08:46:28;30.83;;;23.52;;
56712;SDS011;42589;45.536;9.032;2023-03-01T08:49:31;32.45;;;23.00;;
56712;SDS011;42589;45.536;9.032;2023-03-01T08:52:32;29.80;;;21.02;;
56712;SDS011;42589;45.536;9.032;2023-03-01T08:55:34;30.67;;;21.10;;
56712;SDS011;42589;45.536;9.032;2023-03-01T08:58:35;30.33;;;21.33;;
56712;SDS011;42589;45.536;9.032;2023-03-01T09:01:37;33.47;;;22.10;;
56712;SDS011;42589;45.536;9.032;2023-03-01T09:04:40;30.77;;;20.27;;
56712;SDS011;42589;45.536;9.032;2023-03-01T09:07:40;25.85;;;19.80;;
56712;SDS011;42589;45.536;9.032;2023-03-01T09:10:44;30.17;;;20.60;;
56712;SDS011;42589;45.536;9.032;2023-03-01T09:13:46;26.98;;;20.67;;
56712;SDS011;42589;45.536;9.032;2023-03-01T09:16:48;29.27;;;20.20;;
56712;SDS011;42589;45.536;9.032;2023-03-01T09:19:49;26.05;;;19.77;;
56712;SDS011;42589;45.536;9.032;2023-03-01T09:22:52;28.08;;;20.45;;
56712;SDS011;42589;45.536;9.032;2023-03-01T09:25:54;29.38;;;20.10;;
56712;SDS011;42589;45.536;9.032;2023-03-01T09:28:55;28.88;;;19.42;;
56712;SDS011;42589;45.536;9.032;2023-03-01T09:31:56;31.50;;;19.63;;
56712;SDS011;42589;45.536;9.032;2023-03-01T09:34:57;29.80;;;21.05;;
56712;SDS011;42589;45.536;9.032;2023-03-01T09:38:03;29.40;;;21.15;;
56712;SDS011;42589;45.536;9.032;2023-03-01T09:41:09;33.03;;;20.83;;
56712;SDS011;42589;45.536;9.032;2023-03-01T09:47:32;29.75;;;20.23;;
56712;SDS011;42589;45.536;9.032;2023-03-01T09:50:36;27.63;;;19.77;;
56712;SDS011;42589;45.536;9.032;2023-03-01T09:53:41;28.23;;;20.15;;
56712;SDS011;42589;45.536;9.032;2023-03-01T09:56:45;27.40;;;20.48;;
56712;SDS011;42589;45.536;9.032;2023-03-01T09:59:56;31.85;;;22.63;;
56712;SDS011;42589;45.536;9.032;2023-03-01T10:03:10;33.22;;;23.52;;
56712;SDS011;42589;45.536;9.032;2023-03-01T10:06:21;30.25;;;21.08;;
56712;SDS011;42589;45.536;9.032;2023-03-01T10:09:33;30.88;;;22.23;;
56712;SDS011;42589;45.536;9.032;2023-03-01T10:12:36;36.55;;;22.48;;
56712;SDS011;42589;45.536;9.032;2023-03-01T10:15:44;30.48;;;20.25;;
56712;SDS011;42589;45.536;9.032;2023-03-01T10:18:54;25.05;;;18.13;;
56712;SDS011;42589;45.536;9.032;2023-03-01T10:22:05;26.73;;;18.05;;
56712;SDS011;42589;45.536;9.032;2023-03-01T10:25:30;27.60;;;19.48;;
56712;SDS011;42589;45.536;9.032;2023-03-01T10:28:40;27.58;;;19.65;;
56712;SDS011;42589;45.536;9.032;2023-03-01T10:31:51;27.95;;;19.25;;
56712;SDS011;42589;45.536;9.032;2023-03-01T10:34:53;28.75;;;20.13;;
56712;SDS011;42589;45.536;9.032;2023-03-01T10:44:08;30.25;;;20.67;;
56712;SDS011;42589;45.536;9.032;2023-03-01T10:47:39;30.08;;;21.52;;
56712;SDS011;42589;45.536;9.032;2023-03-01T10:50:44;30.80;;;21.63;;
56712;SDS011;42589;45.536;9.032;2023-03-01T10:53:49;33.15;;;21.80;;
56712;SDS011;42589;45.536;9.032;2023-03-01T10:56:52;31.30;;;22.33;;
56712;SDS011;42589;45.536;9.032;2023-03-01T11:00:47;32.15;;;22.20;;
56712;SDS011;42589;45.536;9.032;2023-03-01T11:03:30;30.07;;;22.80;;
56712;SDS011;42589;45.536;9.032;2023-03-01T11:06:36;30.38;;;21.95;;
56712;SDS011;42589;45.536;9.032;2023-03-01T11:09:39;29.05;;;20.95;;
56712;SDS011;42589;45.536;9.032;2023-03-01T11:12:40;31.00;;;22.17;;
56712;SDS011;42589;45.536;9.032;2023-03-01T11:15:41;30.13;;;21.65;;
56712;SDS011;42589;45.536;9.032;2023-03-01T11:18:42;31.10;;;23.00;;
56712;SDS011;42589;45.536;9.032;2023-03-01T11:21:50;32.40;;;22.02;;
56712;SDS011;42589;45.536;9.032;2023-03-01T11:25:17;34.78;;;23.77;;
56712;SDS011;42589;45.536;9.032;2023-03-01T11:28:20;31.80;;;22.70;;
56712;SDS011;42589;45.536;9.032;2023-03-01T11:31:22;31.50;;;22.15;;
56712;SDS011;42589;45.536;9.032;2023-03-01T11:34:32;30.48;;;22.27;;
56712;SDS011;42589;45.536;9.032;2023-03-01T11:44:18;30.55;;;21.92;;
56712;SDS011;42589;45.536;9.032;2023-03-01T11:50:46;31.30;;;22.00;;
56712;SDS011;42589;45.536;9.032;2023-03-01T11:57:33;28.95;;;20.50;;
56712;SDS011;42589;45.536;9.032;2023-03-01T12:17:16;30.58;;;22.05;;
56712;SDS011;42589;45.536;9.032;2023-03-01T12:30:19;33.83;;;24.15;;
56712;SDS011;42589;45.536;9.032;2023-03-01T12:33:39;33.25;;;24.55;;
56712;SDS011;42589;45.536;9.032;2023-03-01T12:50:37;33.00;;;23.98;;
56712;SDS011;42589;45.536;9.032;2023-03-01T12:53:43;33.00;;;23.95;;
56712;SDS011;42589;45.536;9.032;2023-03-01T12:56:48;32.03;;;24.27;;
56712;SDS011;42589;45.536;9.032;2023-03-01T13:00:05;29.58;;;21.88;;
56712;SDS011;42589;45.536;9.032;2023-03-01T13:15:56;34.00;;;22.90;;
56712;SDS011;42589;45.536;9.032;2023-03-01T13:19:57;30.85;;;22.85;;
56712;SDS011;42589;45.536;9.032;2023-03-01T13:22:32;28.52;;;20.98;;
56712;SDS011;42589;45.536;9.032;2023-03-01T13:25:34;30.90;;;22.48;;
56712;SDS011;42589;45.536;9.032;2023-03-01T13:28:56;29.98;;;22.23;;
56712;SDS011;42589;45.536;9.032;2023-03-01T13:31:57;32.72;;;22.63;;
56712;SDS011;42589;45.536;9.032;2023-03-01T13:45:39;29.48;;;22.83;;
56712;SDS011;42589;45.536;9.032;2023-03-01T13:48:41;33.60;;;21.25;;
56712;SDS011;42589;45.536;9.032;2023-03-01T13:51:46;29.30;;;20.88;;
56712;SDS011;42589;45.536;9.032;2023-03-01T13:54:47;31.15;;;22.08;;
56712;SDS011;42589;45.536;9.032;2023-03-01T13:57:59;31.52;;;22.40;;
56712;SDS011;42589;45.536;9.032;2023-03-01T14:01:25;31.67;;;23.23;;
56712;SDS011;42589;45.536;9.032;2023-03-01T14:04:32;29.65;;;21.83;;
56712;SDS011;42589;45.536;9.032;2023-03-01T14:07:36;30.23;;;22.60;;
56712;SDS011;42589;45.536;9.032;2023-03-01T14:20:20;30.73;;;22.55;;
56712;SDS011;42589;45.536;9.032;2023-03-01T14:23:26;32.60;;;23.00;;
56712;SDS011;42589;45.536;9.032;2023-03-01T14:26:27;31.70;;;22.88;;
56712;SDS011;42589;45.536;9.032;2023-03-01T14:29:36;31.77;;;22.15;;
56712;SDS011;42589;45.536;9.032;2023-03-01T14:32:38;31.85;;;23.55;;
56712;SDS011;42589;45.536;9.032;2023-03-01T14:35:39;32.33;;;22.98;;
56712;SDS011;42589;45.536;9.032;2023-03-01T14:38:42;31.35;;;22.65;;
56712;SDS011;42589;45.536;9.032;2023-03-01T14:41:44;33.95;;;23.23;;
56712;SDS011;42589;45.536;9.032;2023-03-01T14:44:47;32.72;;;23.60;;
56712;SDS011;42589;45.536;9.032;2023-03-01T14:50:51;31.80;;;23.63;;
56712;SDS011;42589;45.536;9.032;2023-03-01T14:53:54;30.60;;;22.50;;
56712;SDS011;42589;45.536;9.032;2023-03-01T14:56:58;35.53;;;24.00;;
56712;SDS011;42589;45.536;9.032;2023-03-01T15:00:01;30.83;;;23.52;;
56712;SDS011;42589;45.536;9.032;2023-03-01T15:03:13;33.92;;;24.70;;
56712;SDS011;42589;45.536;9.032;2023-03-01T15:06:22;33.38;;;24.35;;
56712;SDS011;42589;45.536;9.032;2023-03-01T15:09:23;32.15;;;23.90;;
56712;SDS011;42589;45.536;9.032;2023-03-01T15:18:29;33.25;;;25.00;;
56712;SDS011;42589;45.536;9.032;2023-03-01T15:21:34;34.92;;;24.15;;
56712;SDS011;42589;45.536;9.032;2023-03-01T15:24:40;32.78;;;24.45;;
56712;SDS011;42589;45.536;9.032;2023-03-01T15:27:44;35.00;;;24.45;;
56712;SDS011;42589;45.536;9.032;2023-03-01T15:34:35;35.60;;;25.77;;
56712;SDS011;42589;45.536;9.032;2023-03-01T15:40:48;30.83;;;22.75;;
56712;SDS011;42589;45.536;9.032;2023-03-01T15:43:50;38.58;;;25.73;;
56712;SDS011;42589;45.536;9.032;2023-03-01T15:46:54;33.70;;;25.05;;
56712;SDS011;42589;45.536;9.032;2023-03-01T15:49:55;31.58;;;23.42;;
56712;SDS011;42589;45.536;9.032;2023-03-01T15:52:58;33.33;;;24.17;;
56712;SDS011;42589;45.536;9.032;2023-03-01T15:56:01;32.95;;;22.92;;
56712;SDS011;42589;45.536;9.032;2023-03-01T15:59:02;33.70;;;22.88;;
56712;SDS011;42589;45.536;9.032;2023-03-01T16:02:08;32.72;;;23.60;;
56712;SDS011;42589;45.536;9.032;2023-03-01T16:05:15;33.10;;;23.73;;
56712;SDS011;42589;45.536;9.032;2023-03-01T16:08:27;33.83;;;24.77;;
56712;SDS011;42589;45.536;9.032;2023-03-01T16:11:29;33.67;;;24.33;;
56712;SDS011;42589;45.536;9.032;2023-03-01T16:14:33;33.78;;;24.75;;
56712;SDS011;42589;45.536;9.032;2023-03-01T16:17:34;32.33;;;24.10;;
56712;SDS011;42589;45.536;9.032;2023-03-01T16:20:36;37.70;;;25.02;;
56712;SDS011;42589;45.536;9.032;2023-03-01T16:23:37;36.25;;;25.13;;
56712;SDS011;42589;45.536;9.032;2023-03-01T16:26:43;35.38;;;25.67;;
56712;SDS011;42589;45.536;9.032;2023-03-01T16:29:45;34.97;;;24.20;;
56712;SDS011;42589;45.536;9.032;2023-03-01T16:32:48;36.80;;;25.17;;
56712;SDS011;42589;45.536;9.032;2023-03-01T16:35:50;36.70;;;24.92;;
56712;SDS011;42589;45.536;9.032;2023-03-01T16:38:51;38.10;;;25.30;;
56712;SDS011;42589;45.536;9.032;2023-03-01T16:41:52;35.88;;;25.30;;
56712;SDS011;42589;45.536;9.032;2023-03-01T16:44:56;35.45;;;25.52;;
56712;SDS011;42589;45.536;9.032;2023-03-01T16:47:57;34.63;;;25.27;;
56712;SDS011;42589;45.536;9.032;2023-03-01T16:50:59;33.95;;;24.50;;
56712;SDS011;42589;45.536;9.032;2023-03-01T16:54:00;37.05;;;24.30;;
56712;SDS011;42589;45.536;9.032;2023-03-01T16:57:01;33.80;;;25.35;;
56712;SDS011;42589;45.536;9.032;2023-03-01T17:00:03;42.10;;;25.98;;
56712;SDS011;42589;45.536;9.032;2023-03-01T17:03:09;35.85;;;25.70;;
56712;SDS011;42589;45.536;9.032;2023-03-01T17:06:11;37.15;;;26.10;;
56712;SDS011;42589;45.536;9.032;2023-03-01T17:09:13;36.55;;;26.08;;
56712;SDS011;42589;45.536;9.032;2023-03-01T17:12:17;35.15;;;25.75;;
56712;SDS011;42589;45.536;9.032;2023-03-01T17:15:19;35.78;;;24.77;;
56712;SDS011;42589;45.536;9.032;2023-03-01T17:18:20;36.53;;;25.65;;
56712;SDS011;42589;45.536;9.032;2023-03-01T17:21:22;33.83;;;23.23;;
56712;SDS011;42589;45.536;9.032;2023-03-01T17:24:23;32.38;;;23.27;;
56712;SDS011;42589;45.536;9.032;2023-03-01T17:27:26;32.47;;;22.38;;
56712;SDS011;42589;45.536;9.032;2023-03-01T17:30:27;30.77;;;21.75;;
56712;SDS011;42589;45.536;9.032;2023-03-01T17:33:29;34.75;;;25.38;;
56712;SDS011;42589;45.536;9.032;2023-03-01T17:36:33;35.10;;;25.27;;
56712;SDS011;42589;45.536;9.032;2023-03-01T17:39:42;36.30;;;25.15;;
56712;SDS011;42589;45.536;9.032;2023-03-01T17:42:44;35.67;;;25.75;;
56712;SDS011;42589;45.536;9.032;2023-03-01T17:45:46;33.72;;;25.20;;
56712;SDS011;42589;45.536;9.032;2023-03-01T17:48:47;36.38;;;25.10;;
56712;SDS011;42589;45.536;9.032;2023-03-01T17:51:49;39.72;;;25.13;;
56712;SDS011;42589;45.536;9.032;2023-03-01T17:54:50;37.38;;;25.45;;
56712;SDS011;42589;45.536;9.032;2023-03-01T17:57:51;37.05;;;26.92;;
56712;SDS011;42589;45.536;9.032;2023-03-01T18:00:52;38.17;;;26.98;;
56712;SDS011;42589;45.536;9.032;2023-03-01T18:03:52;39.92;;;27.50;;
56712;SDS011;42589;45.536;9.032;2023-03-01T18:06:53;40.30;;;28.98;;
56712;SDS011;42589;45.536;9.032;2023-03-01T18:09:59;45.58;;;31.20;;
56712;SDS011;42589;45.536;9.032;2023-03-01T18:13:01;43.65;;;30.35;;
56712;SDS011;42589;45.536;9.032;2023-03-01T18:16:03;45.92;;;30.25;;
56712;SDS011;42589;45.536;9.032;2023-03-01T18:19:10;40.90;;;29.02;;
56712;SDS011;42589;45.536;9.032;2023-03-01T18:22:13;43.92;;;30.33;;
56712;SDS011;42589;45.536;9.032;2023-03-01T18:25:14;40.38;;;29.20;;
56712;SDS011;42589;45.536;9.032;2023-03-01T18:28:15;43.05;;;30.58;;
56712;SDS011;42589;45.536;9.032;2023-03-01T18:31:18;42.47;;;30.52;;
56712;SDS011;42589;45.536;9.032;2023-03-01T18:34:22;42.65;;;30.23;;
56712;SDS011;42589;45.536;9.032;2023-03-01T18:37:23;43.92;;;30.95;;
56712;SDS011;42589;45.536;9.032;2023-03-01T18:40:27;43.05;;;31.25;;
56712;SDS011;42589;45.536;9.032;2023-03-01T18:43:29;45.63;;;31.95;;
56712;SDS011;42589;45.536;9.032;2023-03-01T18:46:32;50.47;;;33.78;;
56712;SDS011;42589;45.536;9.032;2023-03-01T18:49:32;47.20;;;32.58;;
56712;SDS011;42589;45.536;9.032;2023-03-01T18:52:34;51.38;;;34.03;;
56712;SDS011;42589;45.536;9.032;2023-03-01T18:55:36;52.55;;;34.28;;
56712;SDS011;42589;45.536;9.032;2023-03-01T18:58:38;47.10;;;34.00;;
56712;SDS011;42589;45.536;9.032;2023-03-01T19:01:39;49.70;;;34.53;;
56712;SDS011;42589;45.536;9.032;2023-03-01T19:04:40;53.33;;;35.17;;
56712;SDS011;42589;45.536;9.032;2023-03-01T19:07:41;50.08;;;34.90;;
56712;SDS011;42589;45.536;9.032;2023-03-01T19:10:42;48.58;;;34.55;;
56712;SDS011;42589;45.536;9.032;2023-03-01T19:13:43;49.83;;;35.20;;
56712;SDS011;42589;45.536;9.032;2023-03-01T19:16:46;50.63;;;34.83;;
56712;SDS011;42589;45.536;9.032;2023-03-01T19:19:47;50.80;;;34.20;;
56712;SDS011;42589;45.536;9.032;2023-03-01T19:22:49;50.50;;;34.70;;
56712;SDS011;42589;45.536;9.032;2023-03-01T19:25:50;52.83;;;35.85;;
56712;SDS011;42589;45.536;9.032;2023-03-01T19:28:53;52.00;;;35.42;;
56712;SDS011;42589;45.536;9.032;2023-03-01T19:31:54;52.13;;;36.95;;
56712;SDS011;42589;45.536;9.032;2023-03-01T19:34:55;54.53;;;36.50;;
56712;SDS011;42589;45.536;9.032;2023-03-01T19:37:57;51.42;;;35.97;;
56712;SDS011;42589;45.536;9.032;2023-03-01T19:40:57;54.60;;;37.97;;
56712;SDS011;42589;45.536;9.032;2023-03-01T19:43:58;50.70;;;35.85;;
56712;SDS011;42589;45.536;9.032;2023-03-01T19:47:01;53.55;;;37.08;;
56712;SDS011;42589;45.536;9.032;2023-03-01T19:50:03;51.10;;;35.63;;
56712;SDS011;42589;45.536;9.032;2023-03-01T19:53:04;52.70;;;36.13;;
56712;SDS011;42589;45.536;9.032;2023-03-01T19:56:04;36.03;;;27.38;;
56712;SDS011;42589;45.536;9.032;2023-03-01T19:59:06;28.63;;;22.98;;
56712;SDS011;42589;45.536;9.032;2023-03-01T20:02:08;26.52;;;21.65;;
56712;SDS011;42589;45.536;9.032;2023-03-01T20:05:09;27.25;;;21.63;;